createdAt,value
2019-05-20T00:00:06.690Z,15.10
2019-05-20T00:02:35.750Z,15.00
2019-05-20T00:05:05.438Z,15.00
2019-05-20T00:07:34.488Z,14.90
2019-05-20T00:10:05.553Z,15.00
2019-05-20T00:12:34.608Z,14.90
2019-05-20T00:15:05.409Z,14.70
2019-05-20T00:17:34.487Z,14.50
2019-05-20T00:20:07.496Z,14.40
2019-05-20T00:22:36.553Z,14.40
2019-05-20T00:25:07.445Z,14.50
2019-05-20T00:27:36.566Z,14.30
2019-05-20T00:30:06.328Z,14.20
2019-05-20T00:32:41.027Z,14.20
2019-05-20T00:35:07.246Z,14.30
2019-05-20T00:37:36.297Z,14.30
2019-05-20T00:40:07.369Z,14.40
2019-05-20T00:42:36.416Z,14.30
2019-05-20T00:45:06.453Z,14.20
2019-05-20T00:47:35.560Z,14.10
2019-05-20T00:50:05.965Z,14.10
2019-05-20T00:52:35.010Z,14.10
2019-05-20T00:55:06.221Z,14.10
2019-05-20T00:57:35.280Z,14.00
2019-05-20T01:00:06.474Z,13.90
2019-05-20T01:02:35.567Z,13.90
2019-05-20T01:05:05.469Z,13.80
2019-05-20T01:07:34.541Z,13.80
2019-05-20T01:10:07.199Z,13.70
2019-05-20T01:12:36.316Z,13.70
2019-05-20T01:15:06.989Z,13.80
2019-05-20T01:17:36.052Z,13.90
2019-05-20T01:20:06.730Z,14.00
2019-05-20T01:22:36.221Z,14.10
2019-05-20T01:25:06.729Z,14.20
2019-05-20T01:27:35.783Z,14.20
2019-05-20T01:30:07.904Z,14.30
2019-05-20T01:32:36.999Z,14.10
2019-05-20T01:35:07.117Z,14.10
2019-05-20T01:37:36.181Z,14.20
2019-05-20T01:40:05.597Z,14.30
2019-05-20T01:42:34.732Z,14.50
2019-05-20T01:45:04.223Z,14.50
2019-05-20T01:47:33.360Z,14.60
2019-05-20T01:50:02.507Z,14.60
2019-05-20T01:52:31.698Z,14.50
2019-05-20T01:55:00.831Z,14.70
2019-05-20T01:57:29.899Z,14.80
2019-05-20T01:59:58.957Z,14.70
2019-05-20T02:02:28.030Z,14.60
2019-05-20T02:04:57.103Z,14.50
2019-05-20T02:07:26.596Z,14.60
2019-05-20T02:09:55.652Z,14.60
2019-05-20T02:12:24.711Z,14.50
2019-05-20T02:15:01.119Z,14.50
2019-05-20T02:17:30.195Z,14.50
2019-05-20T02:19:59.239Z,14.40
2019-05-20T02:22:28.288Z,14.40
2019-05-20T02:24:57.338Z,14.30
2019-05-20T02:27:26.414Z,14.40
2019-05-20T02:29:55.468Z,14.40
2019-05-20T02:32:24.541Z,14.40
2019-05-20T02:34:53.954Z,14.40
2019-05-20T02:37:23.085Z,14.30
2019-05-20T02:39:52.155Z,14.30
2019-05-20T02:42:21.284Z,14.30
2019-05-20T02:44:50.340Z,14.30
2019-05-20T02:47:19.404Z,14.20
2019-05-20T02:49:48.460Z,14.20
2019-05-20T02:52:17.589Z,14.20
2019-05-20T02:54:46.644Z,14.20
2019-05-20T02:57:15.717Z,14.20
2019-05-20T02:59:44.769Z,14.30
2019-05-20T03:02:13.840Z,14.30
2019-05-20T03:04:42.967Z,14.40
2019-05-20T03:07:12.103Z,14.40
2019-05-20T03:09:41.237Z,14.40
2019-05-20T03:12:10.295Z,14.50
2019-05-20T03:14:39.350Z,14.50
2019-05-20T03:17:08.412Z,14.50
2019-05-20T03:19:37.477Z,14.50
2019-05-20T03:22:06.578Z,14.40
2019-05-20T03:24:35.683Z,14.50
2019-05-20T03:27:04.740Z,14.50
2019-05-20T03:29:33.807Z,14.50
2019-05-20T03:32:02.967Z,14.60
2019-05-20T03:34:47.637Z,14.50
2019-05-20T03:37:02.880Z,14.40
2019-05-20T03:39:31.937Z,14.50
2019-05-20T03:42:00.995Z,14.60
2019-05-20T03:44:30.076Z,14.80
2019-05-20T03:46:59.124Z,14.80
2019-05-20T03:49:28.189Z,14.80
2019-05-20T03:51:57.261Z,14.70
2019-05-20T03:54:26.404Z,14.70
2019-05-20T03:56:55.519Z,14.60
2019-05-20T03:59:24.946Z,14.70
2019-05-20T04:01:54.086Z,14.70
2019-05-20T04:04:25.237Z,14.60
2019-05-20T04:06:54.016Z,14.70
2019-05-20T04:09:23.083Z,14.60
2019-05-20T04:11:52.136Z,14.60
2019-05-20T04:14:21.198Z,14.60
2019-05-20T04:16:51.729Z,14.50
2019-05-20T04:19:20.861Z,14.60
2019-05-20T04:21:49.918Z,14.70
2019-05-20T04:24:19.156Z,14.70
2019-05-20T04:26:50.716Z,14.90
2019-05-20T04:29:19.900Z,14.80
2019-05-20T04:31:48.940Z,14.80
2019-05-20T04:34:18.012Z,14.80
2019-05-20T04:36:47.078Z,14.80
2019-05-20T04:39:16.162Z,14.80
2019-05-20T04:41:45.303Z,15.00
2019-05-20T04:44:14.372Z,15.10
2019-05-20T04:46:43.442Z,15.10
2019-05-20T04:49:12.691Z,15.10
2019-05-20T04:51:41.745Z,15.10
2019-05-20T04:54:10.802Z,15.10
2019-05-20T04:56:39.864Z,15.10
2019-05-20T04:59:08.926Z,15.10
2019-05-20T05:01:37.999Z,15.00
2019-05-20T05:04:07.145Z,15.20
2019-05-20T05:06:36.225Z,15.20
2019-05-20T05:09:06.807Z,15.20
2019-05-20T05:11:36.115Z,15.20
2019-05-20T05:14:05.312Z,15.30
2019-05-20T05:16:34.374Z,15.30
2019-05-20T05:19:03.504Z,15.40
2019-05-20T05:21:32.568Z,15.40
2019-05-20T05:24:01.680Z,15.50
2019-05-20T05:26:30.818Z,15.40
2019-05-20T05:28:59.877Z,15.50
2019-05-20T05:31:28.952Z,15.30
2019-05-20T05:33:58.078Z,15.40
2019-05-20T05:36:27.214Z,15.50
2019-05-20T05:38:56.399Z,15.60
2019-05-20T05:41:25.782Z,15.60
2019-05-20T05:43:54.825Z,15.70
2019-05-20T05:46:23.900Z,15.90
2019-05-20T05:48:52.973Z,16.00
2019-05-20T05:51:22.101Z,16.10
2019-05-20T05:53:51.153Z,16.20
2019-05-20T05:56:20.214Z,16.30
2019-05-20T05:58:49.282Z,16.30
2019-05-20T06:01:18.335Z,16.40
2019-05-20T06:03:47.406Z,16.40
2019-05-20T06:06:16.479Z,16.40
2019-05-20T06:08:45.569Z,16.50
2019-05-20T06:11:14.702Z,16.60
2019-05-20T06:13:44.093Z,16.60
2019-05-20T06:16:13.164Z,16.70
2019-05-20T06:18:42.320Z,16.90
2019-05-20T06:21:11.376Z,16.90
2019-05-20T06:23:40.446Z,16.90
2019-05-20T06:26:09.519Z,17.10
2019-05-20T06:28:38.657Z,17.00
2019-05-20T06:31:07.810Z,16.90
2019-05-20T06:33:36.940Z,17.00
2019-05-20T06:36:05.996Z,17.10
2019-05-20T06:38:37.289Z,17.20
2019-05-20T06:41:08.088Z,17.30
2019-05-20T06:43:37.276Z,17.40
2019-05-20T06:46:06.459Z,17.40
2019-05-20T06:48:35.531Z,17.40
2019-05-20T06:51:04.684Z,17.50
2019-05-20T06:53:33.828Z,17.40
2019-05-20T06:56:02.889Z,17.50
2019-05-20T06:58:31.961Z,17.60
2019-05-20T07:01:01.120Z,17.70
2019-05-20T07:03:30.204Z,17.70
2019-05-20T07:05:59.287Z,17.70
2019-05-20T07:08:28.746Z,17.70
2019-05-20T07:10:57.869Z,17.80
2019-05-20T07:13:27.124Z,17.70
2019-05-20T07:15:56.262Z,17.70
2019-05-20T07:18:27.440Z,17.70
2019-05-20T07:20:56.263Z,17.50
2019-05-20T07:23:25.307Z,17.70
2019-05-20T07:25:54.380Z,17.60
2019-05-20T07:28:23.817Z,17.60
2019-05-20T07:30:52.949Z,17.40
2019-05-20T07:33:22.021Z,17.40
2019-05-20T07:35:51.082Z,17.40
2019-05-20T07:38:20.129Z,17.30
2019-05-20T07:40:49.206Z,17.20
2019-05-20T07:43:18.330Z,17.00
2019-05-20T07:45:47.726Z,17.10
2019-05-20T07:48:16.956Z,17.10
2019-05-20T07:50:46.711Z,17.00
2019-05-20T07:53:16.328Z,17.30
2019-05-20T07:56:09.363Z,17.40
2019-05-20T07:58:41.438Z,17.30
2019-05-20T08:01:10.651Z,17.50
2019-05-20T08:03:39.714Z,17.50
2019-05-20T08:06:08.871Z,17.50
2019-05-20T08:08:37.953Z,17.60
2019-05-20T08:11:07.107Z,17.50
2019-05-20T08:13:36.165Z,17.60
2019-05-20T08:16:05.310Z,17.50
2019-05-20T08:18:34.381Z,17.60
2019-05-20T08:21:03.564Z,17.80
2019-05-20T08:23:32.720Z,17.60
2019-05-20T08:26:01.897Z,17.50
2019-05-20T08:28:30.971Z,17.80
2019-05-20T08:31:00.097Z,18.00
2019-05-20T08:33:29.260Z,18.20
2019-05-20T08:35:58.380Z,18.20
2019-05-20T08:38:27.540Z,18.40
2019-05-20T08:40:56.672Z,18.50
2019-05-20T08:43:25.754Z,17.90
2019-05-20T08:45:54.910Z,17.60
2019-05-20T08:48:24.052Z,17.40
2019-05-20T08:50:53.124Z,17.40
2019-05-20T08:53:22.180Z,17.40
2019-05-20T08:55:51.431Z,17.40
2019-05-20T08:58:20.539Z,17.40
2019-05-20T09:00:49.666Z,17.50
2019-05-20T09:03:18.720Z,17.50
2019-05-20T09:05:47.776Z,17.70
2019-05-20T09:08:16.841Z,17.60
2019-05-20T09:10:45.978Z,18.00
2019-05-20T09:13:15.117Z,18.50
2019-05-20T09:15:45.537Z,18.80
2019-05-20T09:18:14.784Z,18.90
2019-05-20T09:21:13.947Z,19.20
2019-05-20T09:23:35.804Z,19.50
2019-05-20T09:26:04.888Z,19.80
2019-05-20T09:28:34.636Z,19.70
2019-05-20T09:31:03.784Z,19.40
2019-05-20T09:33:32.948Z,19.30
2019-05-20T09:36:03.442Z,19.40
2019-05-20T09:38:32.595Z,19.80
2019-05-20T09:41:01.676Z,20.40
2019-05-20T09:43:30.750Z,20.50
2019-05-20T09:46:07.470Z,20.30
2019-05-20T09:48:30.672Z,20.40
2019-05-20T09:50:59.733Z,20.20
2019-05-20T09:53:28.806Z,20.10
2019-05-20T09:55:57.862Z,20.70
2019-05-20T09:58:46.288Z,21.20
2019-05-20T10:01:15.348Z,21.20
2019-05-20T10:03:44.433Z,21.40
2019-05-20T10:06:13.497Z,21.50
2019-05-20T10:08:45.456Z,21.80
2019-05-20T10:11:14.834Z,22.00
2019-05-20T10:13:44.010Z,21.50
2019-05-20T10:16:13.075Z,21.50
2019-05-20T10:18:42.139Z,21.20
2019-05-20T10:21:11.332Z,21.20
2019-05-20T10:23:40.393Z,21.30
2019-05-20T10:26:09.460Z,21.30
2019-05-20T10:28:42.090Z,21.70
2019-05-20T10:31:09.917Z,22.00
2019-05-20T10:33:43.786Z,21.50
2019-05-20T10:36:12.536Z,21.50
2019-05-20T10:38:56.930Z,21.60
2019-05-20T10:41:12.392Z,22.00
2019-05-20T10:43:41.485Z,22.10
2019-05-20T10:46:10.833Z,22.20
2019-05-20T10:48:40.141Z,21.80
2019-05-20T10:51:10.438Z,21.70
2019-05-20T10:53:39.933Z,21.70
2019-05-20T10:56:08.969Z,22.30
2019-05-20T10:58:38.009Z,22.10
2019-05-20T11:01:07.129Z,22.50
2019-05-20T11:03:36.183Z,22.60
2019-05-20T11:06:05.545Z,22.40
2019-05-20T11:08:34.974Z,22.30
2019-05-20T11:11:04.196Z,22.80
2019-05-20T11:13:33.300Z,22.90
2019-05-20T11:16:05.274Z,22.80
2019-05-20T11:18:34.432Z,23.30
2019-05-20T11:24:15.216Z,23.10
2019-05-20T11:26:44.284Z,23.50
2019-05-20T11:29:13.417Z,23.30
2019-05-20T11:31:42.834Z,24.00
2019-05-20T11:34:11.946Z,23.90
2019-05-20T11:36:41.050Z,23.70
2019-05-20T11:39:10.243Z,23.40
2019-05-20T11:41:52.869Z,24.10
2019-05-20T11:44:12.013Z,24.50
2019-05-20T11:46:40.865Z,25.00
2019-05-20T11:49:09.913Z,24.30
2019-05-20T11:51:38.960Z,24.20
2019-05-20T11:54:08.013Z,24.30
2019-05-20T11:56:36.772Z,24.40
2019-05-20T11:59:05.915Z,24.80
2019-05-20T12:01:34.780Z,25.40
2019-05-20T12:04:04.005Z,25.10
2019-05-20T12:06:33.103Z,24.10
2019-05-20T12:09:02.145Z,24.10
2019-05-20T12:11:31.190Z,23.70
2019-05-20T12:14:00.308Z,23.40
2019-05-20T12:16:29.421Z,23.50
2019-05-20T12:18:58.537Z,24.10
2019-05-20T12:21:27.580Z,24.40
2019-05-20T12:23:56.701Z,24.70
2019-05-20T12:26:25.731Z,24.00
2019-05-20T12:28:54.790Z,23.90
2019-05-20T12:31:23.820Z,23.50
2019-05-20T12:33:52.859Z,23.70
2019-05-20T12:36:23.825Z,24.00
2019-05-20T12:38:52.647Z,24.30
2019-05-20T12:41:21.702Z,24.00
2019-05-20T12:44:10.207Z,24.40
2019-05-20T12:46:21.649Z,24.70
2019-05-20T12:48:50.712Z,24.20
2019-05-20T12:51:19.819Z,24.30
2019-05-20T12:53:52.401Z,24.60
2019-05-20T12:56:22.867Z,24.60
2019-05-20T12:58:51.976Z,24.60
2019-05-20T13:01:20.823Z,24.60
2019-05-20T13:03:49.936Z,24.50
2019-05-20T13:06:19.212Z,24.40
2019-05-20T13:08:48.258Z,24.60
2019-05-20T13:11:17.358Z,24.60
2019-05-20T13:13:55.192Z,25.00
2019-05-20T13:16:30.444Z,25.50
2019-05-20T13:19:00.703Z,25.90
2019-05-20T13:21:29.710Z,26.30
2019-05-20T13:23:58.523Z,26.80
2019-05-20T13:26:27.640Z,27.00
2019-05-20T13:28:59.392Z,27.40
2019-05-20T13:31:27.348Z,27.50
2019-05-20T13:33:56.455Z,27.10
2019-05-20T13:36:25.237Z,27.30
2019-05-20T13:38:54.101Z,27.50
2019-05-20T13:41:22.904Z,27.30
2019-05-20T13:43:51.650Z,27.10
2019-05-20T13:46:20.404Z,27.40
2019-05-20T13:48:49.150Z,27.80
2019-05-20T13:51:17.927Z,27.50
2019-05-20T13:53:46.693Z,27.40
2019-05-20T13:56:15.443Z,27.40
2019-05-20T13:58:44.487Z,26.20
2019-05-20T14:01:13.242Z,25.80
2019-05-20T14:03:41.990Z,25.70
2019-05-20T14:06:11.064Z,25.60
2019-05-20T14:08:39.885Z,26.30
2019-05-20T14:11:08.718Z,26.70
2019-05-20T14:13:37.555Z,26.60
2019-05-20T14:16:06.393Z,26.80
2019-05-20T14:18:35.235Z,26.40
2019-05-20T14:21:04.054Z,26.60
2019-05-20T14:23:32.909Z,26.60
2019-05-20T14:26:01.809Z,26.60
2019-05-20T14:28:30.626Z,26.70
2019-05-20T14:30:59.377Z,27.20
2019-05-20T14:33:28.161Z,27.20
2019-05-20T14:35:56.969Z,26.70
2019-05-20T14:38:25.753Z,26.30
2019-05-20T14:40:54.582Z,27.10
2019-05-20T14:43:23.460Z,27.70
2019-05-20T14:45:52.238Z,28.30
2019-05-20T14:48:20.990Z,28.30
2019-05-20T14:50:49.746Z,27.70
2019-05-20T14:53:18.569Z,27.80
2019-05-20T14:55:47.322Z,27.90
2019-05-20T14:58:16.148Z,27.80
2019-05-20T15:00:44.911Z,27.90
2019-05-20T15:03:13.654Z,28.00
2019-05-20T15:05:42.469Z,27.70
2019-05-20T15:08:11.280Z,27.70
2019-05-20T15:10:40.106Z,26.80
2019-05-20T15:13:08.864Z,26.40
2019-05-20T15:15:37.608Z,26.20
2019-05-20T15:18:06.380Z,26.50
2019-05-20T15:20:35.124Z,27.10
2019-05-20T15:23:03.958Z,27.60
2019-05-20T15:25:32.732Z,28.00
2019-05-20T15:28:01.556Z,27.90
2019-05-20T15:30:30.298Z,28.00
2019-05-20T15:32:59.369Z,28.00
2019-05-20T15:35:28.110Z,28.00
2019-05-20T15:37:56.864Z,28.10
2019-05-20T15:40:25.609Z,28.20
2019-05-20T15:42:54.387Z,27.90
2019-05-20T15:45:23.357Z,27.90
2019-05-20T15:47:52.125Z,28.10
2019-05-20T15:50:21.063Z,28.10
2019-05-20T15:52:49.860Z,28.00
2019-05-20T15:55:18.596Z,28.20
2019-05-20T15:57:47.340Z,27.90
2019-05-20T16:00:16.450Z,27.90
2019-05-20T16:02:45.214Z,27.90
2019-05-20T16:05:14.069Z,28.00
2019-05-20T16:07:42.804Z,27.70
2019-05-20T16:10:11.690Z,27.70
2019-05-20T16:12:40.443Z,27.80
2019-05-20T16:15:09.685Z,27.70
2019-05-20T16:17:38.603Z,27.50
2019-05-20T16:20:07.983Z,27.40
2019-05-20T16:22:36.717Z,26.90
2019-05-20T16:25:08.703Z,26.40
2019-05-20T16:27:37.524Z,26.50
2019-05-20T16:30:08.939Z,26.70
2019-05-20T16:32:37.765Z,26.70
2019-05-20T16:35:07.256Z,26.70
2019-05-20T16:37:36.043Z,26.50
2019-05-20T16:40:09.800Z,26.50
2019-05-20T16:42:38.732Z,26.40
2019-05-20T16:45:11.779Z,25.80
2019-05-20T16:47:40.053Z,25.60
2019-05-20T16:50:10.095Z,25.60
2019-05-20T16:52:39.193Z,25.40
2019-05-20T16:55:09.300Z,25.70
2019-05-20T16:57:38.134Z,25.70
2019-05-20T17:00:27.902Z,25.40
2019-05-20T17:02:38.579Z,25.00
2019-05-20T17:05:07.491Z,24.80
2019-05-20T17:07:36.233Z,24.60
2019-05-20T17:10:08.819Z,24.40
2019-05-20T17:12:37.650Z,24.30
2019-05-20T17:15:08.345Z,24.50
2019-05-20T17:17:37.304Z,24.60
2019-05-20T17:20:07.206Z,24.70
2019-05-20T17:22:35.954Z,24.80
2019-05-20T17:25:06.738Z,24.80
2019-05-20T17:27:35.773Z,24.90
2019-05-20T17:30:08.868Z,25.00
2019-05-20T17:32:37.621Z,25.10
2019-05-20T17:35:07.029Z,25.00
2019-05-20T17:37:36.114Z,24.90
2019-05-20T17:40:07.870Z,24.80
2019-05-20T17:42:36.700Z,24.60
2019-05-20T17:45:07.367Z,24.50
2019-05-20T17:47:36.204Z,24.60
2019-05-20T17:50:17.767Z,24.50
2019-05-20T17:52:46.547Z,24.40
2019-05-20T17:55:35.006Z,24.10
2019-05-20T17:58:03.839Z,24.00
2019-05-20T18:00:32.584Z,23.80
2019-05-20T18:03:01.339Z,23.70
2019-05-20T18:05:30.155Z,23.70
2019-05-20T18:07:58.932Z,23.60
2019-05-20T18:10:47.328Z,23.60
2019-05-20T18:13:16.147Z,23.50
2019-05-20T18:15:44.924Z,23.60
2019-05-20T18:18:13.751Z,23.70
2019-05-20T18:20:42.567Z,23.70
2019-05-20T18:23:11.326Z,23.80
2019-05-20T18:25:40.076Z,23.80
2019-05-20T18:28:09.150Z,23.80
2019-05-20T18:30:37.966Z,23.70
2019-05-20T18:33:07.101Z,23.70
2019-05-20T18:35:36.215Z,23.70
2019-05-20T18:38:05.347Z,23.30
2019-05-20T18:40:34.377Z,23.20
2019-05-20T18:43:03.431Z,23.10
2019-05-20T18:45:32.463Z,23.00
2019-05-20T18:48:01.531Z,23.10
2019-05-20T18:50:30.634Z,23.30
2019-05-20T18:52:59.677Z,23.40
2019-05-20T18:55:28.709Z,23.50
2019-05-20T18:57:57.733Z,23.60
2019-05-20T19:00:27.145Z,23.70
2019-05-20T19:02:56.183Z,23.80
2019-05-20T19:05:25.310Z,23.80
2019-05-20T19:07:54.416Z,23.70
2019-05-20T19:10:23.547Z,23.70
2019-05-20T19:12:52.315Z,23.70
2019-05-20T19:15:21.370Z,23.60
2019-05-20T19:17:50.396Z,23.40
2019-05-20T19:20:22.872Z,23.20
2019-05-20T19:22:50.222Z,23.10
2019-05-20T19:25:19.287Z,22.90
2019-05-20T19:27:48.325Z,22.80
2019-05-20T19:30:18.508Z,22.70
2019-05-20T19:32:47.546Z,22.60
2019-05-20T19:35:16.792Z,22.50
2019-05-20T19:37:45.893Z,22.50
2019-05-20T19:40:15.020Z,22.40
2019-05-20T19:42:44.036Z,22.40
2019-05-20T19:45:13.663Z,22.40
2019-05-20T19:47:42.743Z,22.30
2019-05-20T19:50:12.105Z,22.20
2019-05-20T19:52:41.301Z,22.10
2019-05-20T19:55:10.665Z,22.10
2019-05-20T19:57:39.789Z,22.10
2019-05-20T20:00:09.459Z,22.00
2019-05-20T20:02:38.567Z,21.80
2019-05-20T20:05:07.968Z,21.60
2019-05-20T20:07:37.078Z,21.50
2019-05-20T20:10:06.877Z,21.40
2019-05-20T20:12:35.945Z,21.30
2019-05-20T20:15:06.876Z,21.30
2019-05-20T20:17:35.977Z,21.20
2019-05-20T20:20:05.777Z,21.10
2019-05-20T20:22:34.811Z,21.10
2019-05-20T20:25:05.406Z,21.10
2019-05-20T20:27:34.432Z,21.10
2019-05-20T20:30:04.333Z,21.10
2019-05-20T20:32:38.014Z,21.00
2019-05-20T20:35:06.324Z,21.10
2019-05-20T20:37:35.429Z,21.00
2019-05-20T20:40:04.890Z,21.00
2019-05-20T20:42:34.004Z,21.00
2019-05-20T20:45:03.043Z,20.90
2019-05-20T20:47:41.302Z,20.70
2019-05-20T20:50:04.812Z,20.80
2019-05-20T20:52:33.899Z,20.70
2019-05-20T20:55:03.302Z,20.70
2019-05-20T20:57:32.351Z,20.70
2019-05-20T21:00:01.445Z,20.60
2019-05-20T21:02:30.624Z,20.50
2019-05-20T21:04:59.660Z,20.40
2019-05-20T21:07:28.710Z,20.40
2019-05-20T21:09:57.782Z,20.40
2019-05-20T21:12:26.878Z,20.30
2019-05-20T21:14:55.924Z,20.30
2019-05-20T21:17:25.029Z,20.20
2019-05-20T21:19:54.062Z,20.20
2019-05-20T21:22:23.109Z,20.20
2019-05-20T21:24:52.165Z,20.00
2019-05-20T21:27:21.231Z,20.00
2019-05-20T21:29:50.275Z,19.90
2019-05-20T21:32:19.335Z,19.90
2019-05-20T21:34:48.389Z,20.00
2019-05-20T21:37:17.517Z,20.00
2019-05-20T21:39:46.564Z,19.90
2019-05-20T21:42:15.689Z,19.80
2019-05-20T21:44:44.722Z,19.80
2019-05-20T21:47:13.770Z,19.80
2019-05-20T21:49:42.812Z,19.70
2019-05-20T21:52:11.882Z,19.70
2019-05-20T21:54:40.957Z,19.70
2019-05-20T21:57:10.057Z,19.70
2019-05-20T21:59:39.102Z,19.70
2019-05-20T22:02:08.205Z,19.50
2019-05-20T22:04:37.241Z,19.60
2019-05-20T22:07:06.273Z,19.60
2019-05-20T22:09:35.324Z,19.50
2019-05-20T22:12:04.448Z,19.50
2019-05-20T22:14:33.504Z,19.50
2019-05-20T22:17:02.687Z,19.40
2019-05-20T22:19:31.831Z,19.40
2019-05-20T22:22:05.232Z,19.40
2019-05-20T22:24:34.059Z,19.30
2019-05-20T22:27:03.090Z,19.20
2019-05-20T22:29:32.153Z,19.20
2019-05-20T22:32:01.200Z,19.20
2019-05-20T22:34:30.242Z,19.20
2019-05-20T22:36:59.296Z,19.20
2019-05-20T22:39:28.350Z,19.20
2019-05-20T22:41:57.404Z,19.10
2019-05-20T22:44:26.450Z,19.20
2019-05-20T22:46:55.494Z,19.10
2019-05-20T22:49:24.569Z,19.10
2019-05-20T22:51:53.657Z,19.10
2019-05-20T22:54:22.769Z,19.10
2019-05-20T22:56:51.806Z,19.10
2019-05-20T22:59:20.866Z,19.00
2019-05-20T23:01:49.910Z,18.90
2019-05-20T23:04:18.961Z,18.80
2019-05-20T23:06:48.008Z,18.90
2019-05-20T23:09:18.611Z,18.80
2019-05-20T23:11:47.926Z,18.80
2019-05-20T23:14:17.026Z,18.60
2019-05-20T23:16:46.091Z,18.50
2019-05-20T23:19:15.154Z,18.40
2019-05-20T23:21:44.211Z,18.40
2019-05-20T23:24:13.254Z,18.30
2019-05-20T23:26:42.390Z,18.30
2019-05-20T23:29:11.554Z,18.30
2019-05-20T23:31:40.669Z,18.30
2019-05-20T23:34:12.883Z,18.20
2019-05-20T23:36:40.502Z,18.10
2019-05-20T23:39:09.618Z,18.10
2019-05-20T23:41:38.669Z,18.00
2019-05-20T23:44:07.702Z,17.80
2019-05-20T23:46:36.758Z,17.80
2019-05-20T23:49:05.866Z,17.70
2019-05-20T23:51:34.913Z,17.60
2019-05-20T23:54:03.952Z,17.70
2019-05-20T23:56:32.997Z,17.70
2019-05-20T23:59:02.056Z,17.70
